Time;durP1;ratioP1;P1;durP2;ratioP2;P2;SDS_P1;SDS_P2;PMS_P1;PMS_P2;Temp;Humidity;BMP_temperature;BMP_pressure;BME280_temperature;BME280_humidity;BME280_pressure;Samples;Min_cycle;Max_cycle;Signal;HPM_P1;HPM_P2
2023/10/18 00:00:57;;;;;;;11.00;5.43;;;;;;;;;;5093402;28;20539;-80
2023/10/18 00:03:26;;;;;;;15.23;5.70;;;;;;;;;;5094731;28;20488;-80
2023/10/18 00:05:53;;;;;;;11.73;4.77;;;;;;;;;;5091055;28;20492;-80
2023/10/18 00:08:22;;;;;;;7.07;3.93;;;;;;;;;;5088229;28;20732;-78
2023/10/18 00:10:53;;;;;;;9.93;4.40;;;;;;;;;;5089189;28;20499;-78
2023/10/18 00:13:22;;;;;;;8.00;4.73;;;;;;;;;;5089645;28;20483;-80
2023/10/18 00:15:53;;;;;;;12.40;4.93;;;;;;;;;;5091341;28;20699;-77
2023/10/18 00:18:20;;;;;;;10.80;5.53;;;;;;;;;;5086273;28;20780;-79
2023/10/18 00:20:48;;;;;;;7.13;3.40;;;;;;;;;;5089913;28;20468;-80
2023/10/18 00:23:16;;;;;;;6.23;3.77;;;;;;;;;;5091449;28;20449;-80
2023/10/18 00:25:43;;;;;;;5.80;3.30;;;;;;;;;;5088189;28;20519;-79
2023/10/18 00:28:11;;;;;;;8.63;2.97;;;;;;;;;;5089145;28;20440;-79
2023/10/18 00:30:39;;;;;;;6.83;3.90;;;;;;;;;;5089251;28;20506;-80
2023/10/18 00:33:09;;;;;;;7.53;2.83;;;;;;;;;;5091193;28;20466;-79
2023/10/18 00:35:39;;;;;;;8.43;3.40;;;;;;;;;;5088455;28;20506;-79
2023/10/18 00:38:09;;;;;;;7.20;3.20;;;;;;;;;;5092106;28;20873;-79
2023/10/18 00:40:40;;;;;;;6.83;3.47;;;;;;;;;;5090381;28;20456;-79
2023/10/18 00:43:14;;;;;;;5.23;2.93;;;;;;;;;;5088465;28;20452;-79
2023/10/18 00:45:43;;;;;;;6.87;3.30;;;;;;;;;;5086977;28;20476;-79
2023/10/18 00:48:14;;;;;;;5.10;2.33;;;;;;;;;;5086453;28;20460;-79
2023/10/18 00:50:45;;;;;;;5.60;3.20;;;;;;;;;;5091833;28;20468;-79
2023/10/18 00:53:13;;;;;;;5.30;3.30;;;;;;;;;;5089454;28;20495;-79
2023/10/18 00:55:41;;;;;;;5.83;3.60;;;;;;;;;;5087528;28;21060;-78
2023/10/18 00:58:09;;;;;;;5.20;2.87;;;;;;;;;;5085298;28;20448;-77
2023/10/18 01:00:40;;;;;;;7.27;3.40;;;;;;;;;;5087927;28;20429;-78
2023/10/18 01:03:09;;;;;;;6.03;3.70;;;;;;;;;;5091662;28;20470;-80
2023/10/18 01:05:39;;;;;;;7.03;3.43;;;;;;;;;;5093149;28;20558;-80
2023/10/18 01:08:10;;;;;;;8.37;3.40;;;;;;;;;;5091505;28;20504;-79
2023/10/18 01:10:42;;;;;;;6.83;3.30;;;;;;;;;;5088631;28;20475;-79
2023/10/18 01:13:09;;;;;;;7.33;3.47;;;;;;;;;;5085797;28;20440;-80
2023/10/18 01:15:37;;;;;;;5.57;3.30;;;;;;;;;;5087956;28;20522;-78
2023/10/18 01:18:05;;;;;;;7.17;3.70;;;;;;;;;;5090580;28;20449;-80
2023/10/18 01:20:39;;;;;;;8.60;3.93;;;;;;;;;;5091040;28;20459;-78
2023/10/18 01:23:09;;;;;;;5.97;3.30;;;;;;;;;;5090358;28;20456;-78
2023/10/18 01:25:38;;;;;;;6.73;3.03;;;;;;;;;;5086698;28;20865;-79
2023/10/18 01:28:06;;;;;;;6.50;3.07;;;;;;;;;;5090283;28;20461;-79
2023/10/18 01:30:34;;;;;;;8.10;3.13;;;;;;;;;;5091239;28;20459;-78
2023/10/18 01:33:04;;;;;;;7.97;2.87;;;;;;;;;;5087612;28;20433;-79
2023/10/18 01:35:32;;;;;;;10.97;3.47;;;;;;;;;;5085705;28;20540;-78
2023/10/18 01:38:05;;;;;;;7.20;3.50;;;;;;;;;;5091029;28;20464;-79
2023/10/18 01:40:41;;;;;;;7.70;3.37;;;;;;;;;;5092552;28;20504;-80
2023/10/18 01:43:11;;;;;;;6.60;3.63;;;;;;;;;;5090270;28;20480;-79
2023/10/18 01:45:39;;;;;;;5.90;3.10;;;;;;;;;;5091347;28;20476;-78
2023/10/18 01:48:17;;;;;;;7.20;3.67;;;;;;;;;;5090925;28;20455;-78
2023/10/18 01:50:45;;;;;;;7.63;3.63;;;;;;;;;;5091111;28;20462;-79
2023/10/18 01:53:16;;;;;;;6.83;3.90;;;;;;;;;;5092710;28;20456;-78
2023/10/18 01:55:51;;;;;;;7.03;3.40;;;;;;;;;;5093450;28;20467;-79
2023/10/18 01:58:23;;;;;;;5.90;3.33;;;;;;;;;;5077214;28;20480;-80
2023/10/18 02:00:52;;;;;;;6.13;4.07;;;;;;;;;;5081498;28;20488;-79
2023/10/18 02:03:20;;;;;;;8.70;3.60;;;;;;;;;;5092532;28;20840;-79
2023/10/18 02:05:48;;;;;;;7.63;3.57;;;;;;;;;;5092070;28;20925;-80
2023/10/18 02:08:15;;;;;;;5.30;3.27;;;;;;;;;;5086061;28;20488;-78
2023/10/18 02:10:44;;;;;;;8.23;4.40;;;;;;;;;;5087897;28;20480;-78
2023/10/18 02:13:14;;;;;;;5.00;3.17;;;;;;;;;;5093799;28;20705;-79
2023/10/18 02:15:43;;;;;;;7.00;3.33;;;;;;;;;;5091509;28;20444;-80
2023/10/18 02:18:11;;;;;;;7.37;3.33;;;;;;;;;;5090120;28;20463;-80
2023/10/18 02:20:42;;;;;;;6.80;3.37;;;;;;;;;;5092461;28;20456;-79
2023/10/18 02:23:12;;;;;;;6.43;3.87;;;;;;;;;;5095971;28;20492;-79
2023/10/18 02:25:44;;;;;;;6.13;3.70;;;;;;;;;;5092073;28;20495;-79
2023/10/18 02:28:22;;;;;;;7.93;3.70;;;;;;;;;;5093553;28;20464;-80
2023/10/18 02:30:55;;;;;;;7.70;4.07;;;;;;;;;;5097213;28;20442;-80
2023/10/18 02:33:29;;;;;;;7.13;3.87;;;;;;;;;;5090486;28;20466;-79
2023/10/18 02:35:58;;;;;;;7.23;3.43;;;;;;;;;;5094147;28;20451;-80
2023/10/18 02:38:26;;;;;;;8.50;4.13;;;;;;;;;;5089369;28;20484;-80
2023/10/18 02:40:56;;;;;;;7.87;3.90;;;;;;;;;;5088810;28;20445;-79
2023/10/18 02:43:25;;;;;;;7.80;4.57;;;;;;;;;;5090657;28;20456;-79
2023/10/18 02:45:54;;;;;;;7.17;3.07;;;;;;;;;;5087538;28;20484;-77
2023/10/18 02:48:25;;;;;;;10.13;3.40;;;;;;;;;;5092840;28;20433;-79
2023/10/18 02:50:54;;;;;;;5.90;3.13;;;;;;;;;;5095206;28;20461;-79
2023/10/18 02:53:21;;;;;;;7.60;4.30;;;;;;;;;;5094233;28;20437;-79
2023/10/18 02:55:55;;;;;;;8.40;3.37;;;;;;;;;;5092809;28;20472;-80
2023/10/18 02:58:28;;;;;;;5.20;2.77;;;;;;;;;;5094541;28;20567;-79
2023/10/18 03:01:05;;;;;;;9.17;3.50;;;;;;;;;;5092665;28;20467;-79
2023/10/18 03:03:33;;;;;;;7.73;4.00;;;;;;;;;;5092953;28;20527;-79
2023/10/18 03:06:06;;;;;;;6.07;3.63;;;;;;;;;;5093923;28;20990;-80
2023/10/18 03:08:34;;;;;;;5.10;2.93;;;;;;;;;;5094958;28;20467;-79
2023/10/18 03:11:04;;;;;;;5.80;3.37;;;;;;;;;;5090037;28;20449;-78
2023/10/18 03:13:31;;;;;;;5.27;3.10;;;;;;;;;;5088182;28;20603;-79
2023/10/18 03:16:06;;;;;;;7.80;3.70;;;;;;;;;;5087857;28;20525;-78
2023/10/18 03:18:37;;;;;;;6.60;3.33;;;;;;;;;;5092408;28;20460;-79
2023/10/18 03:21:07;;;;;;;5.53;2.80;;;;;;;;;;5093918;28;20460;-80
2023/10/18 03:23:44;;;;;;;6.13;3.00;;;;;;;;;;5095598;28;20484;-79
2023/10/18 03:26:12;;;;;;;8.03;2.93;;;;;;;;;;5095507;28;20483;-79
2023/10/18 03:28:43;;;;;;;6.30;2.77;;;;;;;;;;5091370;28;20458;-79
2023/10/18 03:31:28;;;;;;;5.00;2.90;;;;;;;;;;5091767;28;20520;-79
2023/10/18 03:34:02;;;;;;;5.80;3.50;;;;;;;;;;5096838;28;20440;-80
2023/10/18 03:36:32;;;;;;;6.37;3.13;;;;;;;;;;5090989;28;20466;-77
2023/10/18 03:39:10;;;;;;;7.50;3.40;;;;;;;;;;5084484;28;20464;-78
2023/10/18 03:41:40;;;;;;;6.70;3.77;;;;;;;;;;5086906;28;20787;-80
2023/10/18 03:44:08;;;;;;;6.83;3.20;;;;;;;;;;5086214;28;20460;-79
2023/10/18 03:46:48;;;;;;;5.50;2.87;;;;;;;;;;5085639;28;20511;-78
2023/10/18 03:52:16;;;;;;;5.60;2.63;;;;;;;;;;5090300;28;20714;-78
2023/10/18 03:54:57;;;;;;;7.13;2.83;;;;;;;;;;5090057;28;20456;-78
2023/10/18 03:57:29;;;;;;;7.23;3.10;;;;;;;;;;5090126;28;20447;-78
2023/10/18 03:59:58;;;;;;;5.10;2.67;;;;;;;;;;5089740;28;20444;-80
2023/10/18 04:02:28;;;;;;;6.93;2.77;;;;;;;;;;5091417;28;20471;-78
2023/10/18 04:05:00;;;;;;;4.90;3.13;;;;;;;;;;5089905;28;20536;-79
2023/10/18 04:07:29;;;;;;;5.60;2.90;;;;;;;;;;5090733;28;20480;-78
2023/10/18 04:10:11;;;;;;;6.03;2.60;;;;;;;;;;5091059;28;20452;-79
2023/10/18 04:12:40;;;;;;;5.93;3.07;;;;;;;;;;5088492;28;20457;-77
2023/10/18 04:15:19;;;;;;;6.20;2.93;;;;;;;;;;5086695;28;20545;-78
2023/10/18 04:18:10;;;;;;;5.40;3.10;;;;;;;;;;5091518;28;20444;-78
2023/10/18 04:20:40;;;;;;;8.97;3.33;;;;;;;;;;5095183;28;20457;-78
2023/10/18 04:23:14;;;;;;;5.57;3.00;;;;;;;;;;5091367;28;20460;-79
2023/10/18 04:25:42;;;;;;;7.13;3.30;;;;;;;;;;5089016;28;20543;-79
2023/10/18 04:28:11;;;;;;;5.63;3.00;;;;;;;;;;5089665;28;20455;-78
2023/10/18 04:30:39;;;;;;;5.33;2.40;;;;;;;;;;5089709;28;20468;-79
2023/10/18 04:33:24;;;;;;;5.70;2.90;;;;;;;;;;5091604;28;20441;-79
2023/10/18 04:35:55;;;;;;;5.37;2.77;;;;;;;;;;5093780;28;20444;-78
2023/10/18 04:38:29;;;;;;;5.17;2.40;;;;;;;;;;5094807;28;20460;-80
2023/10/18 04:41:04;;;;;;;8.47;2.43;;;;;;;;;;5093621;28;20503;-79
2023/10/18 04:43:36;;;;;;;4.90;2.30;;;;;;;;;;5092351;28;20844;-77
2023/10/18 04:46:14;;;;;;;5.50;2.97;;;;;;;;;;5092167;28;20519;-78
2023/10/18 04:49:16;;;;;;;6.20;3.27;;;;;;;;;;5089049;28;20466;-78
2023/10/18 04:51:49;;;;;;;6.17;2.77;;;;;;;;;;5089457;28;20456;-80
2023/10/18 04:54:18;;;;;;;9.93;2.90;;;;;;;;;;5092656;28;20551;-80
2023/10/18 04:56:46;;;;;;;4.80;2.43;;;;;;;;;;5091880;28;20460;-78
2023/10/18 04:59:29;;;;;;;7.90;2.70;;;;;;;;;;5091943;28;20500;-79
2023/10/18 05:02:00;;;;;;;8.17;2.80;;;;;;;;;;5090734;28;20460;-79
2023/10/18 05:04:29;;;;;;;4.60;2.70;;;;;;;;;;5093007;28;20428;-80
2023/10/18 05:07:00;;;;;;;6.80;2.47;;;;;;;;;;5091772;28;20547;-80
2023/10/18 05:09:30;;;;;;;4.30;2.20;;;;;;;;;;5090177;28;20463;-79
2023/10/18 05:11:59;;;;;;;4.70;2.40;;;;;;;;;;5089543;28;20456;-79
2023/10/18 05:14:40;;;;;;;5.00;2.70;;;;;;;;;;5089568;28;20506;-78
2023/10/18 05:17:17;;;;;;;5.20;2.40;;;;;;;;;;5084806;28;20486;-79
2023/10/18 05:19:47;;;;;;;9.00;2.10;;;;;;;;;;5081244;28;20448;-78
2023/10/18 05:22:19;;;;;;;4.50;2.23;;;;;;;;;;5090674;28;20482;-78
2023/10/18 05:24:55;;;;;;;6.80;2.40;;;;;;;;;;5091990;28;20468;-79
2023/10/18 05:27:27;;;;;;;4.80;2.50;;;;;;;;;;5089011;28;20494;-78
2023/10/18 05:30:08;;;;;;;6.70;2.70;;;;;;;;;;5082068;28;20495;-79
2023/10/18 05:32:39;;;;;;;5.23;2.40;;;;;;;;;;5080462;28;20479;-78
2023/10/18 05:35:26;;;;;;;8.20;2.10;;;;;;;;;;5082487;28;20433;-79
2023/10/18 05:38:06;;;;;;;5.40;2.20;;;;;;;;;;5091218;28;20445;-78
2023/10/18 05:40:49;;;;;;;4.87;2.60;;;;;;;;;;5090379;28;20495;-79
2023/10/18 05:43:22;;;;;;;6.20;2.73;;;;;;;;;;5082347;28;20755;-78
2023/10/18 05:45:55;;;;;;;6.10;3.40;;;;;;;;;;5085021;28;20505;-78
2023/10/18 05:48:24;;;;;;;5.27;2.53;;;;;;;;;;5089954;28;20453;-77
2023/10/18 05:51:04;;;;;;;6.90;2.40;;;;;;;;;;5086168;28;20567;-79
2023/10/18 05:53:32;;;;;;;5.50;2.60;;;;;;;;;;5092747;28;20471;-80
2023/10/18 05:55:59;;;;;;;6.90;3.37;;;;;;;;;;5091297;28;20453;-79
2023/10/18 05:58:27;;;;;;;6.57;2.50;;;;;;;;;;5091726;28;20452;-79
2023/10/18 06:01:02;;;;;;;11.53;2.60;;;;;;;;;;5090786;28;20453;-76
2023/10/18 06:03:39;;;;;;;4.30;2.30;;;;;;;;;;5082146;28;20463;-78
2023/10/18 06:06:08;;;;;;;4.63;2.40;;;;;;;;;;5081349;28;20764;-78
2023/10/18 06:08:36;;;;;;;7.20;3.30;;;;;;;;;;5080177;28;20448;-78
2023/10/18 06:11:06;;;;;;;5.23;2.50;;;;;;;;;;5082474;28;20478;-78
2023/10/18 06:13:35;;;;;;;7.13;3.20;;;;;;;;;;5082563;28;20479;-79
2023/10/18 06:16:18;;;;;;;7.27;3.10;;;;;;;;;;5087724;28;20506;-79
2023/10/18 06:18:48;;;;;;;7.10;2.93;;;;;;;;;;5091028;28;20462;-78
2023/10/18 06:21:19;;;;;;;6.13;3.27;;;;;;;;;;5083872;28;20464;-78
2023/10/18 06:23:54;;;;;;;5.63;2.70;;;;;;;;;;5075807;28;20478;-79
2023/10/18 06:26:33;;;;;;;12.03;3.97;;;;;;;;;;5078468;28;21029;-77
2023/10/18 06:29:01;;;;;;;6.27;3.50;;;;;;;;;;5080224;28;20448;-78
2023/10/18 06:31:30;;;;;;;5.90;3.00;;;;;;;;;;5085103;28;20452;-77
2023/10/18 06:34:04;;;;;;;6.77;3.77;;;;;;;;;;5086910;28;20483;-79
2023/10/18 06:36:39;;;;;;;8.60;3.53;;;;;;;;;;5090735;28;20451;-78
2023/10/18 06:39:07;;;;;;;7.23;3.50;;;;;;;;;;5090512;28;20456;-80
2023/10/18 06:41:36;;;;;;;6.50;2.90;;;;;;;;;;5090690;28;20795;-80
2023/10/18 06:44:11;;;;;;;8.43;3.30;;;;;;;;;;5078808;28;20453;-79
2023/10/18 06:46:39;;;;;;;6.93;3.70;;;;;;;;;;5080568;28;20456;-79
2023/10/18 06:49:10;;;;;;;5.73;2.67;;;;;;;;;;5086773;28;20460;-80
2023/10/18 06:51:43;;;;;;;7.83;3.27;;;;;;;;;;5085520;28;20530;-80
2023/10/18 06:54:14;;;;;;;6.00;3.53;;;;;;;;;;5083351;28;20517;-78
2023/10/18 06:56:45;;;;;;;4.93;2.83;;;;;;;;;;5084739;28;20522;-80
2023/10/18 06:59:14;;;;;;;6.70;3.13;;;;;;;;;;5082504;28;20448;-80
2023/10/18 07:01:57;;;;;;;7.90;2.67;;;;;;;;;;5088996;28;20447;-78
2023/10/18 07:04:31;;;;;;;9.23;3.67;;;;;;;;;;5090731;28;20457;-79
2023/10/18 07:07:01;;;;;;;14.70;8.77;;;;;;;;;;5072806;28;20477;-77
2023/10/18 07:09:36;;;;;;;6.53;3.30;;;;;;;;;;5071513;28;20449;-78
2023/10/18 07:12:10;;;;;;;5.93;2.73;;;;;;;;;;5080824;28;20460;-79
2023/10/18 07:14:39;;;;;;;12.13;3.10;;;;;;;;;;5082615;28;20450;-79
2023/10/18 07:17:11;;;;;;;5.87;2.70;;;;;;;;;;5072564;28;20457;-78
2023/10/18 07:19:47;;;;;;;5.27;3.20;;;;;;;;;;5074692;28;20505;-79
2023/10/18 07:22:21;;;;;;;4.73;3.13;;;;;;;;;;5073042;28;20461;-80
2023/10/18 07:24:54;;;;;;;7.73;3.40;;;;;;;;;;5092793;28;20493;-78
2023/10/18 07:27:23;;;;;;;5.20;2.80;;;;;;;;;;5092283;28;20484;-79
2023/10/18 07:29:50;;;;;;;4.83;2.90;;;;;;;;;;5103851;28;20456;-79
2023/10/18 07:32:23;;;;;;;12.83;3.70;;;;;;;;;;5087475;28;20453;-78
2023/10/18 07:34:54;;;;;;;5.83;3.40;;;;;;;;;;5089025;28;20471;-79
2023/10/18 07:37:31;;;;;;;10.80;7.27;;;;;;;;;;5102537;28;20437;-80
2023/10/18 07:40:08;;;;;;;9.03;3.87;;;;;;;;;;5073377;28;20492;-79
2023/10/18 07:42:41;;;;;;;10.60;4.47;;;;;;;;;;5090620;28;20475;-79
2023/10/18 07:45:14;;;;;;;11.67;5.77;;;;;;;;;;5089278;28;20500;-79
2023/10/18 07:47:42;;;;;;;6.90;3.03;;;;;;;;;;5087723;28;20480;-78
2023/10/18 07:52:55;;;;;;;7.77;3.47;;;;;;;;;;5079922;28;20443;-78
2023/10/18 07:55:23;;;;;;;10.47;4.30;;;;;;;;;;5093779;28;20448;-79
2023/10/18 07:57:54;;;;;;;7.43;3.90;;;;;;;;;;5071858;28;20453;-78
2023/10/18 08:00:35;;;;;;;6.20;2.83;;;;;;;;;;5067846;28;20511;-78
2023/10/18 08:03:05;;;;;;;9.23;3.30;;;;;;;;;;5079966;28;20496;-78
2023/10/18 08:05:46;;;;;;;8.43;3.70;;;;;;;;;;5085039;28;20537;-78
2023/10/18 08:08:24;;;;;;;14.87;4.40;;;;;;;;;;5086819;28;20475;-77
2023/10/18 08:10:53;;;;;;;7.10;4.17;;;;;;;;;;5085842;28;20448;-77
2023/10/18 08:13:25;;;;;;;11.13;5.20;;;;;;;;;;5076909;28;20458;-77
2023/10/18 08:15:56;;;;;;;7.20;4.60;;;;;;;;;;5073888;28;20558;-78
2023/10/18 08:21:25;;;;;;;10.20;4.37;;;;;;;;;;5080255;28;20472;-77
2023/10/18 08:23:56;;;;;;;9.57;5.57;;;;;;;;;;5089104;28;20454;-78
2023/10/18 08:26:26;;;;;;;11.90;5.00;;;;;;;;;;5079293;28;20484;-78
2023/10/18 08:28:57;;;;;;;9.83;4.80;;;;;;;;;;5094062;28;20495;-77
2023/10/18 08:31:32;;;;;;;10.13;5.60;;;;;;;;;;5087251;28;20492;-78
2023/10/18 08:34:05;;;;;;;12.60;7.00;;;;;;;;;;5094163;28;20464;-77
2023/10/18 08:36:33;;;;;;;10.67;6.20;;;;;;;;;;5082081;28;20464;-78
2023/10/18 08:39:03;;;;;;;10.37;5.93;;;;;;;;;;5087473;28;20482;-78
2023/10/18 08:41:36;;;;;;;15.20;6.50;;;;;;;;;;5085747;28;20476;-78
2023/10/18 08:44:15;;;;;;;15.67;6.80;;;;;;;;;;5085718;28;20448;-78
2023/10/18 08:46:55;;;;;;;14.37;6.80;;;;;;;;;;5077562;28;20466;-78
2023/10/18 08:49:23;;;;;;;9.77;4.90;;;;;;;;;;5081388;28;20448;-78
2023/10/18 08:52:04;;;;;;;8.60;5.73;;;;;;;;;;5084230;28;20524;-78
2023/10/18 08:54:35;;;;;;;8.17;5.00;;;;;;;;;;5070260;28;20492;-79
2023/10/18 08:57:32;;;;;;;16.63;5.50;;;;;;;;;;5091912;28;20472;-78
2023/10/18 09:00:17;;;;;;;11.80;4.93;;;;;;;;;;5091310;28;20463;-79
2023/10/18 09:02:44;;;;;;;8.50;4.20;;;;;;;;;;5082321;28;20456;-79
2023/10/18 09:05:13;;;;;;;7.43;3.87;;;;;;;;;;5077568;28;20444;-77
2023/10/18 09:07:44;;;;;;;9.87;5.60;;;;;;;;;;5080446;28;20583;-78
2023/10/18 09:10:33;;;;;;;5.40;3.17;;;;;;;;;;5076838;28;20472;-78
2023/10/18 09:15:54;;;;;;;7.87;2.60;;;;;;;;;;5086366;28;20441;-77
2023/10/18 09:18:23;;;;;;;5.43;2.30;;;;;;;;;;5086596;28;20959;-75
2023/10/18 09:20:51;;;;;;;5.50;2.10;;;;;;;;;;5079917;28;20740;-79
2023/10/18 09:23:21;;;;;;;4.50;2.13;;;;;;;;;;5101280;28;20471;-80
2023/10/18 09:25:51;;;;;;;5.10;2.23;;;;;;;;;;5087294;28;20597;-77
2023/10/18 09:28:25;;;;;;;4.67;2.10;;;;;;;;;;5081289;28;20484;-77
2023/10/18 09:30:54;;;;;;;4.00;1.70;;;;;;;;;;5077187;28;20462;-78
2023/10/18 09:33:26;;;;;;;5.93;3.23;;;;;;;;;;5091101;28;20536;-79
2023/10/18 09:36:01;;;;;;;3.93;2.23;;;;;;;;;;5075472;28;20503;-79
2023/10/18 09:38:41;;;;;;;13.67;5.40;;;;;;;;;;5075935;28;20448;-78
2023/10/18 09:41:10;;;;;;;5.83;2.80;;;;;;;;;;5088435;28;20530;-78
2023/10/18 09:43:38;;;;;;;6.47;3.10;;;;;;;;;;5086301;28;20452;-78
2023/10/18 09:46:06;;;;;;;3.60;2.40;;;;;;;;;;5075741;28;20465;-78
2023/10/18 09:48:37;;;;;;;3.53;2.10;;;;;;;;;;5074256;28;20534;-77
2023/10/18 09:51:09;;;;;;;4.13;2.23;;;;;;;;;;5072619;28;20453;-79
2023/10/18 09:53:42;;;;;;;4.53;2.40;;;;;;;;;;5074388;28;20472;-78
2023/10/18 09:56:13;;;;;;;5.30;2.37;;;;;;;;;;5065423;28;20453;-80
2023/10/18 09:58:46;;;;;;;3.30;2.00;;;;;;;;;;5074178;28;20451;-78
2023/10/18 10:01:29;;;;;;;6.87;2.77;;;;;;;;;;5090124;28;20474;-80
2023/10/18 10:03:57;;;;;;;5.60;3.00;;;;;;;;;;5071150;28;20465;-80
2023/10/18 10:06:27;;;;;;;4.50;2.53;;;;;;;;;;5079368;28;20479;-79
2023/10/18 10:09:09;;;;;;;4.13;2.10;;;;;;;;;;5099678;28;20479;-78
2023/10/18 10:11:43;;;;;;;8.47;2.40;;;;;;;;;;5084400;28;20461;-78
2023/10/18 10:14:12;;;;;;;6.07;2.90;;;;;;;;;;5090649;28;20503;-80
2023/10/18 10:19:51;;;;;;;10.03;4.07;;;;;;;;;;5083276;28;20415;-79
2023/10/18 10:22:23;;;;;;;11.47;5.83;;;;;;;;;;5076168;28;20547;-78
2023/10/18 10:25:04;;;;;;;5.50;2.70;;;;;;;;;;5064458;28;20453;-79
2023/10/18 10:27:59;;;;;;;5.33;2.80;;;;;;;;;;5071288;28;20939;-78
2023/10/18 10:30:36;;;;;;;4.37;2.10;;;;;;;;;;5077348;28;20468;-78
2023/10/18 10:33:05;;;;;;;8.80;3.37;;;;;;;;;;5076154;28;20452;-79
2023/10/18 10:35:35;;;;;;;5.47;2.43;;;;;;;;;;5082194;28;20534;-80
2023/10/18 10:38:13;;;;;;;5.70;3.70;;;;;;;;;;5082599;28;20480;-81
2023/10/18 10:40:44;;;;;;;4.33;2.53;;;;;;;;;;5081450;28;20461;-79
2023/10/18 10:43:12;;;;;;;6.63;3.80;;;;;;;;;;5074383;28;20496;-79
2023/10/18 10:45:53;;;;;;;4.60;3.00;;;;;;;;;;5090785;28;20473;-79
2023/10/18 10:48:45;;;;;;;3.73;2.00;;;;;;;;;;5073137;28;20487;-77
2023/10/18 10:51:16;;;;;;;4.13;2.07;;;;;;;;;;5091415;28;20468;-79
2023/10/18 10:53:48;;;;;;;6.83;2.90;;;;;;;;;;5075770;28;20498;-79
2023/10/18 10:56:19;;;;;;;3.60;2.37;;;;;;;;;;5088170;28;20439;-79
2023/10/18 10:58:55;;;;;;;3.27;2.57;;;;;;;;;;5091761;28;20460;-78
2023/10/18 11:01:43;;;;;;;7.67;2.37;;;;;;;;;;5092590;28;20517;-80
2023/10/18 11:04:20;;;;;;;4.07;2.30;;;;;;;;;;5084055;28;20492;-78
2023/10/18 11:06:56;;;;;;;2.80;2.00;;;;;;;;;;5079161;28;20495;-78
2023/10/18 11:09:32;;;;;;;2.90;1.67;;;;;;;;;;5081718;28;20496;-79
2023/10/18 11:12:03;;;;;;;3.80;1.97;;;;;;;;;;5083415;28;20515;-80
2023/10/18 11:14:31;;;;;;;3.17;1.83;;;;;;;;;;5077027;28;20453;-78
2023/10/18 11:17:09;;;;;;;3.07;2.57;;;;;;;;;;5080490;28;20452;-78
2023/10/18 11:19:40;;;;;;;3.00;1.97;;;;;;;;;;5082541;28;20464;-79
2023/10/18 11:22:11;;;;;;;4.30;2.00;;;;;;;;;;5077295;28;20470;-79
2023/10/18 11:24:42;;;;;;;5.10;2.77;;;;;;;;;;5079020;28;20465;-78
2023/10/18 11:27:10;;;;;;;8.70;2.63;;;;;;;;;;5078175;28;20850;-78
2023/10/18 11:29:38;;;;;;;4.27;2.10;;;;;;;;;;5078732;28;20507;-78
2023/10/18 11:32:19;;;;;;;3.00;1.70;;;;;;;;;;5080574;28;20472;-80
2023/10/18 11:34:51;;;;;;;3.50;2.10;;;;;;;;;;5083087;28;20460;-78
2023/10/18 11:37:34;;;;;;;3.00;1.90;;;;;;;;;;5075912;28;20712;-78
2023/10/18 11:40:14;;;;;;;4.37;2.13;;;;;;;;;;5081588;28;20469;-78
2023/10/18 11:43:04;;;;;;;4.83;2.47;;;;;;;;;;5079898;28;20480;-78
2023/10/18 11:45:32;;;;;;;6.40;3.87;;;;;;;;;;5083572;28;20452;-79
2023/10/18 11:48:03;;;;;;;3.83;2.10;;;;;;;;;;5084737;28;20480;-78
2023/10/18 11:50:40;;;;;;;3.10;1.80;;;;;;;;;;5087219;28;21012;-78
2023/10/18 11:53:13;;;;;;;5.30;2.10;;;;;;;;;;5082089;28;20456;-78
2023/10/18 11:55:57;;;;;;;3.97;1.60;;;;;;;;;;5082314;28;20451;-79
2023/10/18 11:58:41;;;;;;;4.47;2.33;;;;;;;;;;5073004;28;20457;-80
2023/10/18 12:01:31;;;;;;;7.33;2.13;;;;;;;;;;5078521;28;21012;-79
2023/10/18 12:04:09;;;;;;;5.63;3.10;;;;;;;;;;5069012;28;20529;-79
2023/10/18 12:06:43;;;;;;;5.80;2.87;;;;;;;;;;5071594;28;20441;-80
2023/10/18 12:09:31;;;;;;;4.50;2.10;;;;;;;;;;5083008;28;20928;-78
2023/10/18 12:12:05;;;;;;;4.00;2.43;;;;;;;;;;5064066;28;20516;-78
2023/10/18 12:14:36;;;;;;;5.40;2.60;;;;;;;;;;5063764;28;20465;-79
2023/10/18 12:17:04;;;;;;;5.03;1.83;;;;;;;;;;5061430;28;20517;-79
2023/10/18 12:19:34;;;;;;;4.70;2.20;;;;;;;;;;5061431;28;20453;-78
2023/10/18 12:22:07;;;;;;;12.07;6.53;;;;;;;;;;5064527;28;20458;-78
2023/10/18 12:24:41;;;;;;;6.50;3.03;;;;;;;;;;5056594;28;20497;-80
2023/10/18 12:27:33;;;;;;;4.90;3.10;;;;;;;;;;5074253;28;20510;-79
2023/10/18 12:30:26;;;;;;;4.40;2.17;;;;;;;;;;5050665;28;20469;-76
2023/10/18 12:32:54;;;;;;;7.87;2.73;;;;;;;;;;5049349;28;20892;-79
2023/10/18 12:35:28;;;;;;;5.87;2.37;;;;;;;;;;5047946;28;20890;-79
2023/10/18 12:37:56;;;;;;;5.00;2.73;;;;;;;;;;5037686;28;20469;-81
2023/10/18 12:40:30;;;;;;;5.80;2.80;;;;;;;;;;5043438;28;20466;-79
2023/10/18 12:43:00;;;;;;;6.63;2.30;;;;;;;;;;5041121;28;20469;-78
2023/10/18 12:45:28;;;;;;;4.50;2.40;;;;;;;;;;5043431;28;20446;-79
2023/10/18 12:48:08;;;;;;;4.63;2.50;;;;;;;;;;5036153;28;20451;-80
2023/10/18 12:50:37;;;;;;;4.27;2.40;;;;;;;;;;5039158;28;20454;-79
2023/10/18 12:53:18;;;;;;;5.80;2.70;;;;;;;;;;5038829;28;20509;-79
2023/10/18 12:55:57;;;;;;;6.40;2.47;;;;;;;;;;5076827;28;20460;-79
2023/10/18 12:58:29;;;;;;;5.47;3.03;;;;;;;;;;5082597;28;20790;-79
2023/10/18 13:01:05;;;;;;;3.60;2.67;;;;;;;;;;5085876;28;20444;-80
2023/10/18 13:03:37;;;;;;;5.43;3.20;;;;;;;;;;5092242;28;20436;-78
2023/10/18 13:06:15;;;;;;;7.10;2.50;;;;;;;;;;5090116;28;20520;-79
2023/10/18 13:08:55;;;;;;;5.90;2.63;;;;;;;;;;5090023;28;20919;-80
2023/10/18 13:14:14;;;;;;;3.33;1.97;;;;;;;;;;5087471;28;20454;-78
2023/10/18 13:16:42;;;;;;;5.50;2.57;;;;;;;;;;5104215;28;20484;-79
2023/10/18 13:19:14;;;;;;;4.60;2.50;;;;;;;;;;5080744;28;20449;-79
2023/10/18 13:21:44;;;;;;;6.70;2.53;;;;;;;;;;5082146;28;20460;-81
2023/10/18 13:27:08;;;;;;;5.20;2.77;;;;;;;;;;4956084;27;5940970;-79
2023/10/18 13:29:48;;;;;;;4.90;2.53;;;;;;;;;;5151221;28;20230;-80
2023/10/18 13:32:18;;;;;;;5.17;2.77;;;;;;;;;;5150800;28;20454;-78
2023/10/18 13:34:46;;;;;;;5.27;2.90;;;;;;;;;;5137814;28;20511;-79
2023/10/18 13:37:14;;;;;;;4.13;2.23;;;;;;;;;;5128350;28;20458;-78
2023/10/18 13:39:47;;;;;;;5.00;2.73;;;;;;;;;;5127901;28;20450;-79
2023/10/18 13:42:18;;;;;;;5.80;2.87;;;;;;;;;;5134784;28;20503;-80
2023/10/18 13:44:47;;;;;;;6.53;3.50;;;;;;;;;;5151086;28;20501;-79
2023/10/18 13:47:15;;;;;;;5.80;3.10;;;;;;;;;;5132069;28;20513;-79
2023/10/18 13:49:42;;;;;;;6.73;2.40;;;;;;;;;;5129020;28;20458;-78
2023/10/18 13:52:15;;;;;;;3.83;2.47;;;;;;;;;;5132338;28;20458;-79
2023/10/18 13:54:43;;;;;;;5.40;3.17;;;;;;;;;;5130545;28;20455;-80
2023/10/18 13:57:16;;;;;;;5.30;2.90;;;;;;;;;;5131100;28;20443;-80
2023/10/18 13:59:54;;;;;;;4.43;2.77;;;;;;;;;;5122146;28;20458;-79
2023/10/18 14:02:26;;;;;;;4.87;2.70;;;;;;;;;;5127593;28;20585;-78
2023/10/18 14:04:53;;;;;;;6.87;2.63;;;;;;;;;;5123806;28;20455;-78
2023/10/18 14:07:21;;;;;;;5.97;3.20;;;;;;;;;;5119527;27;20471;-78
2023/10/18 14:09:55;;;;;;;4.73;3.20;;;;;;;;;;5141903;27;20508;-77
2023/10/18 14:12:36;;;;;;;3.83;2.67;;;;;;;;;;5135865;27;20517;-79
2023/10/18 14:15:06;;;;;;;5.30;2.97;;;;;;;;;;5137657;27;20467;-79
2023/10/18 14:17:37;;;;;;;5.73;3.20;;;;;;;;;;5152578;27;20699;-79
2023/10/18 14:20:18;;;;;;;4.23;2.70;;;;;;;;;;5136554;27;20473;-80
2023/10/18 14:22:56;;;;;;;5.23;3.40;;;;;;;;;;5150257;27;20526;-80
2023/10/18 14:25:31;;;;;;;23.23;16.23;;;;;;;;;;5140411;27;20512;-79
2023/10/18 14:28:13;;;;;;;6.80;3.77;;;;;;;;;;5137024;27;20463;-79
2023/10/18 14:30:51;;;;;;;6.70;4.00;;;;;;;;;;5122630;28;20474;-78
2023/10/18 14:33:21;;;;;;;6.37;3.97;;;;;;;;;;5132653;27;20479;-80
2023/10/18 14:35:53;;;;;;;6.97;3.47;;;;;;;;;;5131616;28;20483;-78
2023/10/18 14:38:29;;;;;;;6.37;3.97;;;;;;;;;;5127746;27;20463;-78
2023/10/18 14:41:13;;;;;;;6.13;4.10;;;;;;;;;;5132315;27;20461;-79
2023/10/18 14:43:41;;;;;;;5.80;3.57;;;;;;;;;;5116285;27;20474;-78
2023/10/18 14:46:19;;;;;;;5.80;3.60;;;;;;;;;;5128368;27;20464;-78
2023/10/18 14:48:58;;;;;;;7.73;4.97;;;;;;;;;;5123153;27;20481;-78
2023/10/18 14:51:43;;;;;;;6.00;3.37;;;;;;;;;;5113400;27;20459;-78
2023/10/18 14:54:26;;;;;;;6.67;4.03;;;;;;;;;;5122061;27;20475;-78
2023/10/18 14:56:55;;;;;;;4.40;3.40;;;;;;;;;;5121685;27;20461;-80
2023/10/18 14:59:24;;;;;;;7.90;3.53;;;;;;;;;;5123054;27;20470;-78
2023/10/18 15:02:01;;;;;;;5.20;3.60;;;;;;;;;;5129105;28;20601;-78
2023/10/18 15:04:31;;;;;;;4.83;3.50;;;;;;;;;;5126261;27;20586;-78
2023/10/18 15:07:01;;;;;;;5.70;4.00;;;;;;;;;;5114534;28;20471;-79
2023/10/18 15:09:32;;;;;;;6.63;4.30;;;;;;;;;;5116639;28;20447;-79
2023/10/18 15:12:00;;;;;;;6.20;3.70;;;;;;;;;;5118100;28;20501;-79
2023/10/18 15:14:42;;;;;;;5.50;3.90;;;;;;;;;;5117499;28;20448;-78
2023/10/18 15:17:15;;;;;;;6.00;3.70;;;;;;;;;;5106693;28;20480;-78
2023/10/18 15:19:43;;;;;;;5.93;3.77;;;;;;;;;;5107114;28;20457;-80
2023/10/18 15:22:19;;;;;;;7.40;4.43;;;;;;;;;;5115806;28;20448;-79
2023/10/18 15:24:49;;;;;;;6.53;4.57;;;;;;;;;;5117313;28;20530;-79
2023/10/18 15:27:19;;;;;;;5.87;3.90;;;;;;;;;;5109075;28;20739;-78
2023/10/18 15:29:52;;;;;;;6.77;3.83;;;;;;;;;;5113526;28;20524;-77
2023/10/18 15:32:26;;;;;;;6.30;3.87;;;;;;;;;;5122883;28;20438;-78
2023/10/18 15:34:53;;;;;;;8.80;4.80;;;;;;;;;;5116419;28;20538;-77